Time,TemperatureF,DewpointF,PressureIn,WindDirection,WindDirectionDegrees,WindSpeedMPH,WindSpeedGustMPH,Humidity,HourlyPrecipIn,Conditions,Clouds,dailyrainin,SolarRadiationWatts/m^2,SoftwareType,DateUTC
2013-04-04 00:02:00,55.0,29.0,30.10,SW,233,7.0,11.0,35,-99.99,,,-99.99,0.000000,,2013-04-04 06:02:00,
2013-04-04 00:12:00,55.0,29.0,30.11,SW,218,6.0,9.0,35,-99.99,,,-99.99,0.000000,,2013-04-04 06:12:00,
2013-04-04 00:22:00,55.0,29.0,30.11,SW,218,6.0,9.0,35,-99.99,,,-99.99,0.000000,,2013-04-04 06:22:00,
2013-04-04 00:32:00,55.0,29.0,30.11,SSW,210,4.0,7.0,36,-99.99,,,-99.99,0.000000,,2013-04-04 06:32:00,
2013-04-04 00:42:00,55.0,29.0,30.11,SW,215,4.0,6.0,36,-99.99,,,-99.99,0.000000,,2013-04-04 06:42:00,
2013-04-04 00:53:00,55.0,29.0,30.11,SW,215,4.0,6.0,36,-99.99,,,-99.99,0.000000,,2013-04-04 06:53:00,
2013-04-04 01:02:00,56.0,30.0,30.11,SSW,200,3.0,6.0,36,-99.99,,,-99.99,0.000000,,2013-04-04 07:02:00,
2013-04-04 01:12:00,53.0,28.0,30.11,SSW,210,0.0,3.0,38,-99.99,,,-99.99,0.000000,,2013-04-04 07:12:00,
2013-04-04 01:22:00,53.0,28.0,30.11,SSW,210,0.0,3.0,38,-99.99,,,-99.99,0.000000,,2013-04-04 07:22:00,
2013-04-04 01:32:00,52.0,29.0,30.12,SW,221,1.0,2.0,39,-99.99,,,-99.99,0.000000,,2013-04-04 07:32:00,
2013-04-04 01:43:00,52.0,29.0,30.11,SW,227,2.0,4.0,41,-99.99,,,-99.99,0.000000,,2013-04-04 07:43:00,
2013-04-04 01:53:00,52.0,29.0,30.11,SW,227,2.0,4.0,41,-99.99,,,-99.99,0.000000,,2013-04-04 07:53:00,
2013-04-04 02:02:00,53.0,30.0,30.11,ESE,121,5.0,7.0,41,-99.99,,,-99.99,0.000000,,2013-04-04 08:02:00,
2013-04-04 02:12:00,53.0,30.0,30.11,ESE,123,6.0,7.0,40,-99.99,,,-99.99,0.000000,,2013-04-04 08:12:00,
2013-04-04 02:23:00,53.0,30.0,30.11,ESE,123,6.0,7.0,40,-99.99,,,-99.99,0.000000,,2013-04-04 08:23:00,
2013-04-04 02:32:00,53.0,30.0,30.11,SE,128,8.0,9.0,41,-99.99,,,-99.99,0.000000,,2013-04-04 08:32:00,
2013-04-04 02:43:00,52.0,30.0,30.11,SE,133,7.0,9.0,42,-99.99,,,-99.99,0.000000,,2013-04-04 08:43:00,
2013-04-04 02:52:00,52.0,30.0,30.11,SE,133,7.0,9.0,42,-99.99,,,-99.99,0.000000,,2013-04-04 08:52:00,
2013-04-04 03:02:00,51.0,30.0,30.11,SE,127,6.0,9.0,44,-99.99,,,-99.99,0.000000,,2013-04-04 09:02:00,
2013-04-04 03:12:00,50.0,30.0,30.11,ESE,119,7.0,9.0,45,-99.99,,,-99.99,0.000000,,2013-04-04 09:12:00,
2013-04-04 03:22:00,50.0,30.0,30.11,ESE,119,7.0,9.0,45,-99.99,,,-99.99,0.000000,,2013-04-04 09:22:00,
2013-04-04 03:33:00,48.0,29.0,30.11,East,101,5.0,7.0,47,-99.99,,,-99.99,0.000000,,2013-04-04 09:33:00,
2013-04-04 03:43:00,47.0,28.0,30.11,East,86,5.0,8.0,47,-99.99,,,-99.99,0.000000,,2013-04-04 09:43:00,
2013-04-04 03:54:00,47.0,28.0,30.11,East,86,5.0,8.0,47,-99.99,,,-99.99,0.000000,,2013-04-04 09:54:00,
2013-04-04 04:04:00,46.0,29.0,30.11,ESE,118,6.0,9.0,49,-99.99,,,-99.99,0.000000,,2013-04-04 10:04:00,
2013-04-04 04:12:00,46.0,28.0,30.11,SSE,167,1.0,5.0,49,-99.99,,,-99.99,0.000000,,2013-04-04 10:12:00,
2013-04-04 04:24:00,46.0,28.0,30.11,SSE,167,1.0,5.0,49,-99.99,,,-99.99,0.000000,,2013-04-04 10:24:00,
2013-04-04 04:33:00,45.0,28.0,30.11,South,172,2.0,5.0,51,-99.99,,,-99.99,0.000000,,2013-04-04 10:33:00,
2013-04-04 04:42:00,47.0,29.0,30.11,South,176,1.0,3.0,49,-99.99,,,-99.99,0.000000,,2013-04-04 10:42:00,
2013-04-04 04:54:00,47.0,29.0,30.11,South,176,1.0,3.0,49,-99.99,,,-99.99,0.000000,,2013-04-04 10:54:00,
2013-04-04 05:02:00,46.0,28.0,30.11,South,177,1.0,2.0,49,-99.99,,,-99.99,0.000000,,2013-04-04 11:02:00,
2013-04-04 05:12:00,45.0,28.0,30.11,South,177,1.0,3.0,50,-99.99,,,-99.99,0.000000,,2013-04-04 11:12:00,
2013-04-04 05:22:00,45.0,28.0,30.11,South,177,1.0,3.0,50,-99.99,,,-99.99,0.000000,,2013-04-04 11:22:00,
2013-04-04 05:32:00,45.0,27.0,30.12,South,177,1.0,3.0,49,-99.99,,,-99.99,0.000000,,2013-04-04 11:32:00,
2013-04-04 05:42:00,44.0,27.0,30.12,South,177,1.0,2.0,51,-99.99,,,-99.99,0.000000,,2013-04-04 11:42:00,
2013-04-04 05:54:00,44.0,27.0,30.12,South,177,1.0,2.0,51,-99.99,,,-99.99,0.000000,,2013-04-04 11:54:00,
2013-04-04 06:02:00,42.0,26.0,30.13,SSW,193,2.0,4.0,52,-99.99,,,-99.99,0.000000,,2013-04-04 12:02:00,
2013-04-04 06:12:00,39.0,24.0,30.14,North,0,4.0,7.0,52,-99.99,,,-99.99,0.000000,,2013-04-04 12:12:00,
2013-04-04 06:22:00,39.0,24.0,30.14,North,0,4.0,7.0,52,-99.99,,,-99.99,0.000000,,2013-04-04 12:22:00,
2013-04-04 06:32:00,38.0,23.0,30.14,NNE,27,5.0,7.0,54,-99.99,,,-99.99,0.000000,,2013-04-04 12:32:00,
2013-04-04 06:43:00,40.0,26.0,30.14,NE,35,5.0,7.0,58,-99.99,,,-99.99,0.000000,,2013-04-04 12:43:00,
2013-04-04 06:52:00,40.0,26.0,30.14,NE,35,5.0,7.0,58,-99.99,,,-99.99,0.000000,,2013-04-04 12:52:00,
2013-04-04 07:02:00,40.0,26.0,30.14,NE,35,5.0,7.0,58,-99.99,,,-99.99,0.000000,,2013-04-04 13:02:00,
2013-04-04 07:12:00,38.0,23.0,30.16,NNW,334,5.0,7.0,54,-99.99,,,-99.99,0.700000,,2013-04-04 13:12:00,
2013-04-04 07:22:00,38.0,23.0,30.16,NNW,334,5.0,7.0,54,-99.99,,,-99.99,0.700000,,2013-04-04 13:22:00,
2013-04-04 07:32:00,38.0,24.0,30.17,North,357,6.0,7.0,55,-99.99,,,-99.99,6.280000,,2013-04-04 13:32:00,
2013-04-04 07:42:00,39.0,24.0,30.17,North,7,6.0,7.0,56,-99.99,,,-99.99,30.680000,,2013-04-04 13:42:00,
2013-04-04 07:53:00,39.0,24.0,30.17,North,7,6.0,7.0,56,-99.99,,,-99.99,30.680000,,2013-04-04 13:53:00,
2013-04-04 08:03:00,40.0,24.0,30.17,NNE,28,5.0,7.0,53,-99.99,,,-99.99,82.980003,,2013-04-04 14:03:00,
2013-04-04 08:13:00,41.0,25.0,30.18,NNE,18,3.0,5.0,51,-99.99,,,-99.99,144.350006,,2013-04-04 14:13:00,
2013-04-04 08:22:00,41.0,25.0,30.18,NNE,18,3.0,5.0,51,-99.99,,,-99.99,144.350006,,2013-04-04 14:22:00,
2013-04-04 08:32:00,43.0,26.0,30.19,NNE,14,4.0,6.0,49,-99.99,,,-99.99,198.740005,,2013-04-04 14:32:00,
2013-04-04 08:42:00,46.0,27.0,30.20,NNE,16,4.0,6.0,47,-99.99,,,-99.99,253.830002,,2013-04-04 14:42:00,
2013-04-04 08:53:00,46.0,27.0,30.20,NNE,16,4.0,6.0,47,-99.99,,,-99.99,253.830002,,2013-04-04 14:53:00,
2013-04-04 09:02:00,46.0,27.0,30.20,NNE,16,4.0,6.0,47,-99.99,,,-99.99,253.830002,,2013-04-04 15:02:00,
2013-04-04 09:12:00,51.0,29.0,30.21,NNE,17,4.0,5.0,42,-99.99,,,-99.99,370.980011,,2013-04-04 15:12:00,
2013-04-04 09:23:00,51.0,29.0,30.21,NNE,17,4.0,5.0,42,-99.99,,,-99.99,370.980011,,2013-04-04 15:23:00,
2013-04-04 09:33:00,53.0,30.0,30.21,NNE,18,5.0,7.0,40,-99.99,,,-99.99,430.250000,,2013-04-04 15:33:00,
2013-04-04 09:43:00,55.0,30.0,30.21,NE,37,6.0,9.0,39,-99.99,,,-99.99,487.440002,,2013-04-04 15:43:00,
2013-04-04 09:54:00,55.0,30.0,30.21,NE,37,6.0,9.0,39,-99.99,,,-99.99,487.440002,,2013-04-04 15:54:00,
2013-04-04 10:03:00,57.0,31.0,30.21,NNE,32,6.0,9.0,36,-99.99,,,-99.99,541.130005,,2013-04-04 16:03:00,
2013-04-04 10:12:00,58.0,30.0,30.21,NNE,28,3.0,7.0,34,-99.99,,,-99.99,592.729980,,2013-04-04 16:12:00,
2013-04-04 10:24:00,58.0,30.0,30.21,NNE,28,3.0,7.0,34,-99.99,,,-99.99,592.729980,,2013-04-04 16:24:00,
2013-04-04 10:32:00,60.0,30.0,30.21,NNE,17,4.0,7.0,32,-99.99,,,-99.99,641.549988,,2013-04-04 16:32:00,
2013-04-04 10:42:00,61.0,31.0,30.21,NE,42,3.0,7.0,31,-99.99,,,-99.99,650.609985,,2013-04-04 16:42:00,
2013-04-04 10:53:00,61.0,31.0,30.21,NE,42,3.0,7.0,31,-99.99,,,-99.99,650.609985,,2013-04-04 16:53:00,
2013-04-04 11:03:00,61.0,31.0,30.21,NE,42,3.0,7.0,31,-99.99,,,-99.99,650.609985,,2013-04-04 17:03:00,
2013-04-04 11:13:00,64.0,31.0,30.21,ENE,67,1.0,5.0,28,-99.99,,,-99.99,768.460022,,2013-04-04 17:13:00,
2013-04-04 11:22:00,64.0,31.0,30.21,ENE,67,1.0,5.0,28,-99.99,,,-99.99,768.460022,,2013-04-04 17:22:00,
2013-04-04 11:33:00,65.0,30.0,30.21,NE,40,1.0,6.0,26,-99.99,,,-99.99,800.539978,,2013-04-04 17:33:00,
2013-04-04 11:42:00,67.0,30.0,30.21,ENE,62,1.0,7.0,25,-99.99,,,-99.99,827.729980,,2013-04-04 17:42:00,
2013-04-04 11:53:00,67.0,30.0,30.21,ENE,62,1.0,7.0,25,-99.99,,,-99.99,827.729980,,2013-04-04 17:53:00,
2013-04-04 12:02:00,67.0,30.0,30.20,East,81,3.0,8.0,24,-99.99,,,-99.99,859.109985,,2013-04-04 18:02:00,
2013-04-04 12:12:00,67.0,30.0,30.20,East,81,3.0,8.0,24,-99.99,,,-99.99,859.109985,,2013-04-04 18:12:00,
2013-04-04 12:23:00,67.0,30.0,30.20,East,81,3.0,8.0,24,-99.99,,,-99.99,859.109985,,2013-04-04 18:23:00,
2013-04-04 12:32:00,70.0,29.0,30.20,East,101,2.0,6.0,21,-99.99,,,-99.99,900.950012,,2013-04-04 18:32:00,
2013-04-04 12:43:00,71.0,29.0,30.19,ENE,74,3.0,7.0,20,-99.99,,,-99.99,920.479980,,2013-04-04 18:43:00,
2013-04-04 12:52:00,71.0,29.0,30.19,ENE,74,3.0,7.0,20,-99.99,,,-99.99,920.479980,,2013-04-04 18:52:00,
2013-04-04 13:02:00,71.0,29.0,30.19,ENE,74,3.0,7.0,20,-99.99,,,-99.99,920.479980,,2013-04-04 19:02:00,
2013-04-04 13:12:00,73.0,27.0,30.17,SSE,160,3.0,7.0,17,-99.99,,,-99.99,936.520020,,2013-04-04 19:12:00,
2013-04-04 13:22:00,73.0,27.0,30.17,SSE,160,3.0,7.0,17,-99.99,,,-99.99,936.520020,,2013-04-04 19:22:00,
2013-04-04 13:32:00,73.0,23.0,30.17,WSW,245,3.0,6.0,15,-99.99,,,-99.99,952.559998,,2013-04-04 19:32:00,
2013-04-04 13:42:00,74.0,23.0,30.16,SSW,202,3.0,7.0,14,-99.99,,,-99.99,919.780029,,2013-04-04 19:42:00,
2013-04-04 13:52:00,74.0,23.0,30.16,SSW,202,3.0,7.0,14,-99.99,,,-99.99,919.780029,,2013-04-04 19:52:00,
2013-04-04 14:03:00,74.0,23.0,30.16,SSW,202,3.0,7.0,14,-99.99,,,-99.99,919.780029,,2013-04-04 20:03:00,
2013-04-04 14:12:00,74.0,23.0,30.16,SSW,202,3.0,7.0,14,-99.99,,,-99.99,919.780029,,2013-04-04 20:12:00,
2013-04-04 14:32:00,75.0,24.0,30.13,SW,230,3.0,7.0,14,-99.99,,,-99.99,914.900024,,2013-04-04 20:32:00,
2013-04-04 14:42:00,76.0,23.0,30.13,SSW,212,6.0,17.0,14,-99.99,,,-99.99,898.169983,,2013-04-04 20:42:00,
2013-04-04 14:53:00,76.0,23.0,30.13,SSW,212,6.0,17.0,14,-99.99,,,-99.99,898.169983,,2013-04-04 20:53:00,
2013-04-04 15:00:00,76.0,22.0,30.10,SW,214,7.0,19.0,12,-99.99,,,-99.99,755.909973,,2013-04-04 21:00:00,
2013-04-04 15:02:00,76.0,23.0,30.13,SSW,212,6.0,17.0,14,-99.99,,,-99.99,898.169983,,2013-04-04 21:02:00,
2013-04-04 15:12:00,76.0,23.0,30.11,SSW,203,5.0,14.0,13,-99.99,,,-99.99,857.719971,,2013-04-04 21:12:00,
2013-04-04 15:22:00,76.0,23.0,30.11,SSW,203,5.0,14.0,13,-99.99,,,-99.99,857.719971,,2013-04-04 21:22:00,
2013-04-04 15:32:00,76.0,22.0,30.10,SW,214,7.0,19.0,12,-99.99,,,-99.99,755.909973,,2013-04-04 21:32:00,
2013-04-04 15:43:00,76.0,22.0,30.10,SW,214,7.0,19.0,12,-99.99,,,-99.99,755.909973,,2013-04-04 21:43:00,
2013-04-04 15:53:00,76.0,22.0,30.10,SW,214,7.0,19.0,12,-99.99,,,-99.99,755.909973,,2013-04-04 21:53:00,
2013-04-04 16:33:00,78.0,20.0,30.08,South,186,4.0,14.0,11,-99.99,,,-99.99,665.260010,,2013-04-04 22:33:00,
2013-04-04 16:42:00,78.0,20.0,30.08,South,186,4.0,14.0,11,-99.99,,,-99.99,665.260010,,2013-04-04 22:42:00,